createdAt,value
2022-10-17T00:00:31.901Z,6.45
2022-10-17T00:02:59.160Z,6.05
2022-10-17T00:05:26.492Z,6.20
2022-10-17T00:07:54.243Z,6.57
2022-10-17T00:10:21.974Z,6.38
2022-10-17T00:12:49.222Z,6.45
2022-10-17T00:15:16.999Z,5.90
2022-10-17T00:17:44.009Z,6.00
2022-10-17T00:20:11.561Z,5.45
2022-10-17T00:22:38.830Z,6.05
2022-10-17T00:25:06.308Z,5.65
2022-10-17T00:27:41.130Z,5.57
2022-10-17T00:30:10.994Z,6.22
2022-10-17T00:32:38.378Z,5.78
2022-10-17T00:35:05.848Z,6.05
2022-10-17T00:37:33.474Z,6.28
2022-10-17T00:40:01.187Z,6.03
2022-10-17T00:42:28.889Z,6.20
2022-10-17T00:45:09.723Z,6.05
2022-10-17T00:47:37.614Z,5.78
2022-10-17T00:50:06.094Z,6.32
2022-10-17T00:52:33.565Z,5.68
2022-10-17T00:55:23.611Z,6.30
2022-10-17T00:57:51.537Z,5.80
2022-10-17T01:00:20.335Z,6.68
2022-10-17T01:02:50.888Z,5.68
2022-10-17T01:05:18.804Z,6.10
2022-10-17T01:07:46.657Z,6.05
2022-10-17T01:10:14.407Z,6.22
2022-10-17T01:12:41.593Z,5.97
2022-10-17T01:15:08.752Z,5.65
2022-10-17T01:17:44.114Z,5.95
2022-10-17T01:20:11.493Z,5.82
2022-10-17T01:22:48.244Z,6.18
2022-10-17T01:25:30.285Z,6.68
2022-10-17T01:30:30.173Z,5.60
2022-10-17T01:33:09.981Z,6.25
2022-10-17T01:36:01.729Z,6.20
2022-10-17T01:38:35.237Z,6.28
2022-10-17T01:41:14.425Z,6.55
2022-10-17T01:43:44.894Z,6.07
2022-10-17T01:46:18.463Z,6.28
2022-10-17T01:48:46.620Z,6.38
2022-10-17T01:51:28.393Z,6.75
2022-10-17T01:54:00.119Z,6.13
2022-10-17T01:56:28.577Z,6.72
2022-10-17T01:59:07.713Z,6.60
2022-10-17T02:01:37.726Z,6.40
2022-10-17T02:04:06.433Z,6.80
2022-10-17T02:06:37.269Z,7.22
2022-10-17T02:09:17.555Z,6.53
2022-10-17T02:11:48.801Z,6.47
2022-10-17T02:14:27.984Z,6.55
2022-10-17T02:16:55.860Z,6.55
2022-10-17T02:19:23.017Z,6.68
2022-10-17T02:22:08.683Z,6.30
2022-10-17T02:25:06.870Z,6.72
2022-10-17T02:27:37.829Z,7.15
2022-10-17T02:30:09.096Z,6.82
2022-10-17T02:32:45.463Z,6.50
2022-10-17T02:35:16.837Z,6.63
2022-10-17T02:37:45.181Z,7.05
2022-10-17T02:40:14.364Z,7.20
2022-10-17T02:45:09.966Z,6.72
2022-10-17T02:47:38.542Z,6.18
2022-10-17T02:50:07.493Z,6.65
2022-10-17T02:55:03.005Z,6.65
2022-10-17T02:57:45.500Z,6.53
2022-10-17T03:00:15.091Z,6.80
2022-10-17T03:02:47.543Z,7.13
2022-10-17T03:05:16.798Z,6.78
2022-10-17T03:07:44.993Z,6.63
2022-10-17T03:10:13.411Z,6.65
2022-10-17T03:12:40.694Z,6.85
2022-10-17T03:15:09.246Z,6.97
2022-10-17T03:17:36.862Z,6.97
2022-10-17T03:20:04.791Z,7.15
2022-10-17T03:22:32.350Z,7.00
2022-10-17T03:25:01.674Z,6.57
2022-10-17T03:27:29.343Z,6.88
2022-10-17T03:29:56.774Z,7.10
2022-10-17T03:32:24.134Z,6.75
2022-10-17T03:34:51.432Z,7.03
2022-10-17T03:37:18.718Z,6.60
2022-10-17T03:39:45.938Z,6.88
2022-10-17T03:42:13.333Z,6.85
2022-10-17T03:44:40.616Z,6.38
2022-10-17T03:47:10.453Z,7.20
2022-10-17T03:49:40.649Z,6.53
2022-10-17T03:52:12.459Z,6.55
2022-10-17T03:54:39.685Z,7.07
2022-10-17T03:57:07.454Z,6.93
2022-10-17T03:59:36.342Z,7.50
2022-10-17T04:02:08.608Z,6.85
2022-10-17T04:04:36.071Z,6.57
2022-10-17T04:07:03.518Z,6.65
2022-10-17T04:09:30.902Z,6.53
2022-10-17T04:12:11.138Z,7.03
2022-10-17T04:14:38.687Z,6.75
2022-10-17T04:17:05.901Z,6.55
2022-10-17T04:19:34.860Z,6.60
2022-10-17T04:22:03.977Z,6.97
2022-10-17T04:24:34.299Z,7.18
2022-10-17T04:27:08.057Z,7.28
2022-10-17T04:29:38.816Z,6.65
2022-10-17T04:32:11.889Z,6.45
2022-10-17T04:34:45.513Z,7.30
2022-10-17T04:37:13.180Z,6.35
2022-10-17T04:39:40.455Z,7.03
2022-10-17T04:42:07.900Z,6.97
2022-10-17T04:44:35.679Z,7.32
2022-10-17T04:47:02.945Z,6.47
2022-10-17T04:49:30.273Z,7.10
2022-10-17T04:52:06.165Z,6.93
2022-10-17T04:54:42.933Z,6.63
2022-10-17T04:57:11.382Z,6.88
2022-10-17T04:59:40.526Z,7.00
2022-10-17T05:02:31.051Z,6.70
2022-10-17T05:04:59.208Z,6.80
2022-10-17T05:07:26.569Z,6.75
2022-10-17T05:10:00.516Z,6.78
2022-10-17T05:12:29.455Z,6.75
2022-10-17T05:14:56.915Z,7.20
2022-10-17T05:17:26.497Z,6.50
2022-10-17T05:19:54.144Z,6.38
2022-10-17T05:22:21.459Z,6.28
2022-10-17T05:24:49.114Z,6.22
2022-10-17T05:27:16.439Z,6.95
2022-10-17T05:29:44.124Z,7.35
2022-10-17T05:32:20.689Z,6.93
2022-10-17T05:34:48.586Z,6.85
2022-10-17T05:37:15.920Z,6.40
2022-10-17T05:39:50.686Z,7.05
2022-10-17T05:42:19.361Z,8.35
2022-10-17T05:44:47.443Z,7.18
2022-10-17T05:47:16.784Z,7.50
2022-10-17T05:49:49.777Z,6.93
2022-10-17T05:52:21.902Z,6.97
2022-10-17T05:55:00.200Z,6.70
2022-10-17T05:57:27.642Z,7.18
2022-10-17T05:59:55.309Z,7.28
2022-10-17T06:02:22.821Z,7.50
2022-10-17T06:04:50.533Z,7.30
2022-10-17T06:07:20.161Z,6.95
2022-10-17T06:09:48.442Z,6.78
2022-10-17T06:12:15.760Z,7.05
2022-10-17T06:14:44.118Z,6.75
2022-10-17T06:17:16.062Z,6.53
2022-10-17T06:19:44.990Z,6.78
2022-10-17T06:22:13.869Z,6.47
2022-10-17T06:24:42.324Z,6.65
2022-10-17T06:27:12.084Z,6.95
2022-10-17T06:29:41.336Z,7.10
2022-10-17T06:32:11.269Z,6.80
2022-10-17T06:34:42.115Z,7.40
2022-10-17T06:37:10.147Z,6.70
2022-10-17T06:39:39.588Z,7.60
2022-10-17T06:42:11.987Z,6.80
2022-10-17T06:45:04.449Z,6.72
2022-10-17T06:47:43.626Z,6.63
2022-10-17T06:50:34.070Z,6.95
2022-10-17T06:53:22.056Z,6.72
2022-10-17T06:56:08.312Z,6.88
2022-10-17T06:58:50.751Z,6.80
2022-10-17T07:01:31.758Z,6.70
2022-10-17T07:04:01.067Z,7.07
2022-10-17T07:06:29.625Z,6.78
2022-10-17T07:09:01.027Z,6.57
2022-10-17T07:11:28.268Z,6.30
2022-10-17T07:13:55.497Z,6.57
2022-10-17T07:16:22.741Z,6.80
2022-10-17T07:19:01.411Z,6.60
2022-10-17T07:21:36.734Z,6.63
2022-10-17T07:24:07.594Z,6.90
2022-10-17T07:26:35.174Z,6.45
2022-10-17T07:29:02.567Z,6.82
2022-10-17T07:31:37.526Z,7.03
2022-10-17T07:34:04.897Z,7.05
2022-10-17T07:36:32.204Z,6.95
2022-10-17T07:39:02.329Z,7.15
2022-10-17T07:41:31.398Z,7.18
2022-10-17T07:43:59.155Z,6.75
2022-10-17T07:46:32.503Z,6.68
2022-10-17T07:49:00.089Z,6.78
2022-10-17T07:51:27.963Z,6.53
2022-10-17T07:53:55.159Z,6.30
2022-10-17T07:56:24.691Z,6.78
2022-10-17T07:58:52.821Z,6.70
2022-10-17T08:01:20.121Z,6.47
2022-10-17T08:03:50.844Z,7.10
2022-10-17T08:06:18.086Z,6.63
2022-10-17T08:08:45.337Z,6.15
2022-10-17T08:11:13.635Z,6.65
2022-10-17T08:13:41.222Z,6.15
2022-10-17T08:16:09.892Z,7.07
2022-10-17T08:18:37.485Z,6.47
2022-10-17T08:21:06.393Z,6.68
2022-10-17T08:23:33.626Z,6.72
2022-10-17T08:26:01.383Z,6.25
2022-10-17T08:28:28.881Z,6.75
2022-10-17T08:31:03.318Z,6.70
2022-10-17T08:33:30.568Z,6.30
2022-10-17T08:35:59.168Z,7.25
2022-10-17T08:38:27.986Z,6.40
2022-10-17T08:40:57.819Z,6.90
2022-10-17T08:43:43.539Z,7.18
2022-10-17T08:46:10.961Z,6.50
2022-10-17T08:48:46.291Z,7.38
2022-10-17T08:51:19.430Z,6.47
2022-10-17T08:53:53.922Z,7.13
2022-10-17T08:56:37.003Z,6.55
2022-10-17T08:59:15.225Z,6.10
2022-10-17T09:01:46.366Z,7.03
2022-10-17T09:04:29.165Z,6.88
2022-10-17T09:06:57.772Z,7.13
2022-10-17T09:09:26.731Z,7.35
2022-10-17T09:12:14.975Z,7.05
2022-10-17T09:15:05.707Z,6.38
2022-10-17T09:17:33.957Z,6.55
2022-10-17T09:20:19.602Z,7.20
2022-10-17T09:22:49.936Z,6.75
2022-10-17T09:25:18.227Z,6.97
2022-10-17T09:27:47.713Z,7.22
2022-10-17T09:30:40.492Z,8.18
2022-10-17T09:33:34.812Z,7.18
2022-10-17T09:36:12.565Z,7.10
2022-10-17T09:38:45.667Z,6.40
2022-10-17T09:41:43.692Z,7.07
2022-10-17T09:44:24.957Z,6.82
2022-10-17T09:46:58.034Z,6.57
2022-10-17T09:49:35.869Z,6.63
2022-10-17T09:52:07.623Z,7.15
2022-10-17T09:54:39.766Z,6.97
2022-10-17T09:57:08.826Z,6.85
2022-10-17T10:02:09.086Z,6.60
2022-10-17T10:04:59.615Z,7.45
2022-10-17T10:07:28.965Z,7.18
2022-10-17T10:09:57.691Z,7.05
2022-10-17T10:12:29.722Z,7.28
2022-10-17T10:14:57.873Z,7.20
2022-10-17T10:17:45.470Z,7.75
2022-10-17T10:20:30.221Z,7.05
2022-10-17T10:23:07.706Z,6.95
2022-10-17T10:25:36.538Z,6.82
2022-10-17T10:28:10.779Z,6.68
2022-10-17T10:30:39.968Z,7.03
2022-10-17T10:33:07.393Z,7.05
2022-10-17T10:35:36.405Z,7.07
2022-10-17T10:38:09.049Z,6.88
2022-10-17T10:40:39.375Z,7.10
2022-10-17T10:43:07.401Z,6.75
2022-10-17T10:45:53.049Z,7.15
2022-10-17T10:48:22.180Z,7.18
2022-10-17T10:53:17.394Z,6.43
2022-10-17T10:55:52.011Z,6.55
2022-10-17T10:58:48.342Z,6.90
2022-10-17T11:01:20.613Z,6.53
2022-10-17T11:03:57.448Z,6.65
2022-10-17T11:06:27.868Z,6.82
2022-10-17T11:09:06.265Z,6.60
2022-10-17T11:11:39.117Z,6.10
2022-10-17T11:14:13.140Z,6.55
2022-10-17T11:16:45.107Z,6.65
2022-10-17T11:19:24.797Z,7.07
2022-10-17T11:22:15.574Z,7.10
2022-10-17T11:25:21.290Z,7.03
2022-10-17T11:27:48.542Z,6.88
2022-10-17T11:30:16.608Z,7.20
2022-10-17T11:32:46.258Z,7.95
2022-10-17T11:35:37.958Z,6.57
2022-10-17T11:38:11.165Z,6.88
2022-10-17T11:40:40.919Z,6.78
2022-10-17T11:43:16.407Z,7.15
2022-10-17T11:45:45.432Z,6.95
2022-10-17T11:48:27.275Z,7.13
2022-10-17T11:54:09.997Z,7.20
2022-10-17T11:56:42.993Z,6.75
2022-10-17T11:59:29.895Z,7.18
2022-10-17T12:01:59.399Z,7.25
2022-10-17T12:04:49.648Z,7.47
2022-10-17T12:07:17.194Z,6.93
2022-10-17T12:09:55.646Z,7.18
2022-10-17T12:12:31.356Z,7.70
2022-10-17T12:15:24.454Z,7.40
2022-10-17T12:17:56.177Z,7.63
2022-10-17T12:20:27.455Z,8.10
2022-10-17T12:22:59.594Z,8.68
2022-10-17T12:25:32.740Z,8.13
2022-10-17T12:28:25.003Z,7.78
2022-10-17T12:30:57.653Z,7.75
2022-10-17T12:33:26.697Z,7.75
2022-10-17T12:36:32.234Z,8.15
2022-10-17T12:39:02.063Z,6.63
2022-10-17T12:41:42.261Z,7.57
2022-10-17T12:44:15.716Z,7.00
2022-10-17T12:46:56.713Z,7.40
2022-10-17T12:49:37.315Z,6.28
2022-10-17T12:52:07.660Z,6.10
2022-10-17T12:54:47.677Z,5.80
2022-10-17T12:57:35.468Z,5.40
2022-10-17T13:00:14.505Z,5.82
2022-10-17T13:02:42.198Z,4.82
2022-10-17T13:05:14.581Z,4.65
2022-10-17T13:07:44.093Z,5.15
2022-10-17T13:10:28.411Z,4.78
2022-10-17T13:13:01.466Z,4.35
2022-10-17T13:15:28.725Z,4.60
2022-10-17T13:17:57.450Z,4.40
2022-10-17T13:20:30.610Z,4.60
2022-10-17T13:22:59.072Z,4.38
2022-10-17T13:25:27.185Z,4.30
2022-10-17T13:28:04.585Z,4.07
2022-10-17T13:30:33.942Z,4.55
2022-10-17T13:33:01.954Z,4.65
2022-10-17T13:38:25.984Z,5.00
2022-10-17T13:41:01.391Z,5.20
2022-10-17T13:43:33.397Z,5.35
2022-10-17T13:46:25.434Z,5.80
2022-10-17T13:48:53.364Z,5.05
2022-10-17T13:51:20.788Z,5.80
2022-10-17T13:53:48.154Z,5.88
2022-10-17T13:56:30.385Z,5.95
2022-10-17T13:59:17.344Z,6.15
2022-10-17T14:01:44.627Z,6.95
2022-10-17T14:04:19.527Z,6.78
2022-10-17T14:06:51.045Z,6.65
2022-10-17T14:09:19.239Z,7.13
2022-10-17T14:11:59.246Z,6.90
2022-10-17T14:14:26.849Z,7.20
2022-10-17T14:16:54.268Z,6.90
2022-10-17T14:19:28.816Z,7.32
2022-10-17T14:21:57.307Z,7.22
2022-10-17T14:24:24.501Z,7.07
2022-10-17T14:26:53.144Z,7.85
2022-10-17T14:29:23.643Z,8.23
2022-10-17T14:31:53.520Z,8.27
2022-10-17T14:34:22.729Z,9.00
2022-10-17T14:36:52.025Z,9.00
2022-10-17T14:39:20.409Z,9.18
2022-10-17T14:41:47.994Z,9.13
2022-10-17T14:44:17.838Z,8.63
2022-10-17T14:46:49.702Z,8.68
2022-10-17T14:49:24.308Z,8.40
2022-10-17T14:52:17.558Z,8.55
2022-10-17T14:54:47.042Z,8.15
2022-10-17T14:57:23.507Z,8.60
2022-10-17T14:59:55.483Z,8.43
2022-10-17T15:02:28.733Z,8.23
2022-10-17T15:04:56.288Z,8.25
2022-10-17T15:07:24.036Z,8.95
2022-10-17T15:09:53.699Z,8.68
2022-10-17T15:12:25.240Z,8.70
2022-10-17T15:14:53.068Z,8.32
2022-10-17T15:17:27.645Z,8.75
2022-10-17T15:19:55.222Z,8.30
2022-10-17T15:22:22.711Z,8.35
2022-10-17T15:24:50.001Z,7.40
2022-10-17T15:27:18.486Z,8.20
2022-10-17T15:29:46.009Z,8.18
2022-10-17T15:32:13.327Z,7.75
2022-10-17T15:34:40.543Z,7.70
2022-10-17T15:37:18.749Z,7.53
2022-10-17T15:39:46.814Z,7.95
2022-10-17T15:42:13.978Z,7.68
2022-10-17T15:44:44.122Z,6.93
2022-10-17T15:47:37.798Z,7.28
2022-10-17T15:50:06.566Z,7.03
2022-10-17T15:52:33.785Z,6.93
2022-10-17T15:55:04.277Z,6.63
2022-10-17T15:57:37.890Z,6.88
2022-10-17T16:00:06.687Z,6.70
2022-10-17T16:02:36.710Z,6.75
2022-10-17T16:05:09.919Z,7.03
2022-10-17T16:07:37.070Z,6.80
2022-10-17T16:10:04.387Z,6.07
2022-10-17T16:12:36.872Z,6.93
2022-10-17T16:15:04.096Z,7.22
2022-10-17T16:17:31.465Z,6.72
2022-10-17T16:19:59.052Z,6.80
2022-10-17T16:22:36.472Z,6.38
2022-10-17T16:25:09.283Z,6.35
2022-10-17T16:27:37.312Z,6.28
2022-10-17T16:30:08.408Z,6.43
2022-10-17T16:32:35.721Z,6.55
2022-10-17T16:35:02.985Z,6.38
2022-10-17T16:37:30.306Z,6.38
2022-10-17T16:39:57.562Z,6.13
2022-10-17T16:42:24.865Z,5.65
2022-10-17T16:44:52.146Z,6.18
2022-10-17T16:47:19.788Z,6.10
2022-10-17T16:49:47.043Z,5.30
2022-10-17T16:52:14.565Z,6.00
2022-10-17T16:54:41.886Z,5.90
2022-10-17T16:57:09.531Z,5.47
2022-10-17T16:59:36.817Z,5.55
2022-10-17T17:02:04.024Z,5.28
2022-10-17T17:04:31.356Z,5.85
2022-10-17T17:06:58.710Z,4.97
2022-10-17T17:09:25.948Z,5.05
2022-10-17T17:11:53.170Z,4.78
2022-10-17T17:14:20.480Z,4.88
2022-10-17T17:16:47.713Z,4.60
2022-10-17T17:19:17.036Z,4.57
2022-10-17T17:21:50.646Z,4.30
2022-10-17T17:24:18.600Z,4.68
2022-10-17T17:26:46.836Z,4.90
2022-10-17T17:29:14.093Z,4.60
2022-10-17T17:31:41.436Z,4.28
2022-10-17T17:34:09.653Z,4.72
2022-10-17T17:36:38.810Z,4.90
2022-10-17T17:39:08.891Z,5.15
2022-10-17T17:41:36.146Z,5.32
2022-10-17T17:44:03.468Z,5.40
2022-10-17T17:46:30.806Z,5.00
2022-10-17T17:48:58.002Z,5.18
2022-10-17T17:51:28.318Z,4.97
2022-10-17T17:53:56.771Z,5.68
2022-10-17T17:56:28.810Z,5.78
2022-10-17T17:58:57.435Z,6.03
2022-10-17T18:01:25.606Z,5.97
2022-10-17T18:03:53.448Z,6.10
2022-10-17T18:06:21.247Z,6.55
2022-10-17T18:08:49.905Z,6.63
2022-10-17T18:11:19.706Z,6.72
2022-10-17T18:14:00.796Z,6.63
2022-10-17T18:16:29.152Z,7.05
2022-10-17T18:18:56.455Z,6.65
2022-10-17T18:21:23.693Z,7.30
2022-10-17T18:23:51.878Z,7.15
2022-10-17T18:26:19.846Z,7.47
2022-10-17T18:28:47.166Z,7.45
2022-10-17T18:31:16.752Z,6.90
2022-10-17T18:33:44.635Z,6.88
2022-10-17T18:36:13.121Z,7.88
2022-10-17T18:38:40.368Z,7.05
2022-10-17T18:41:17.513Z,6.57
2022-10-17T18:43:46.153Z,7.15
2022-10-17T18:46:15.312Z,7.35
2022-10-17T18:51:09.863Z,6.82
2022-10-17T18:53:41.078Z,7.45
2022-10-17T18:56:09.140Z,7.72
2022-10-17T18:58:37.497Z,7.07
2022-10-17T19:01:17.591Z,7.75
2022-10-17T19:03:48.521Z,6.75
2022-10-17T19:06:17.133Z,7.95
2022-10-17T19:08:44.740Z,7.82
2022-10-17T19:11:14.650Z,7.88
2022-10-17T19:13:42.265Z,7.40
2022-10-17T19:16:10.636Z,7.97
2022-10-17T19:18:38.353Z,9.05
2022-10-17T19:21:08.708Z,8.23
2022-10-17T19:23:36.635Z,8.23
2022-10-17T19:26:07.918Z,8.55
2022-10-17T19:28:35.584Z,8.90
2022-10-17T19:31:02.992Z,10.18
2022-10-17T19:33:31.781Z,10.10
2022-10-17T19:36:03.128Z,9.60
2022-10-17T19:38:30.333Z,9.57
2022-10-17T19:40:57.549Z,10.43
2022-10-17T19:43:24.727Z,11.07
2022-10-17T19:45:55.869Z,9.73
2022-10-17T19:48:23.439Z,11.13
2022-10-17T19:50:51.001Z,10.50
2022-10-17T19:53:18.283Z,11.63
2022-10-17T19:55:45.578Z,11.10
2022-10-17T19:58:13.093Z,11.20
2022-10-17T20:00:57.507Z,11.45
2022-10-17T20:03:25.666Z,11.63
2022-10-17T20:05:52.963Z,11.63
2022-10-17T20:08:20.419Z,12.13
2022-10-17T20:10:47.759Z,12.00
2022-10-17T20:13:15.412Z,12.43
2022-10-17T20:15:42.733Z,12.80
2022-10-17T20:18:10.045Z,10.82
2022-10-17T20:20:37.763Z,12.48
2022-10-17T20:23:05.114Z,11.57
2022-10-17T20:25:34.499Z,12.48
2022-10-17T20:28:01.666Z,12.88
2022-10-17T20:30:28.932Z,11.63
2022-10-17T20:32:56.243Z,12.35
2022-10-17T20:35:23.499Z,13.07
2022-10-17T20:37:50.724Z,12.85
2022-10-17T20:43:06.480Z,12.57
2022-10-17T20:45:50.590Z,12.77
2022-10-17T20:48:19.456Z,11.75
2022-10-17T20:50:46.725Z,11.95
2022-10-17T20:56:09.260Z,11.55
2022-10-17T20:58:36.495Z,11.50
2022-10-17T21:01:08.518Z,12.15
2022-10-17T21:03:38.717Z,12.00
2022-10-17T21:06:09.761Z,12.18
2022-10-17T21:08:37.038Z,12.20
2022-10-17T21:11:08.196Z,11.52
2022-10-17T21:13:35.456Z,11.98
2022-10-17T21:16:07.010Z,11.82
2022-10-17T21:18:34.679Z,11.88
2022-10-17T21:21:15.406Z,11.43
2022-10-17T21:23:43.914Z,11.52
2022-10-17T21:26:12.588Z,11.48
2022-10-17T21:28:43.554Z,11.13
2022-10-17T21:31:15.528Z,11.23
2022-10-17T21:33:43.829Z,11.95
2022-10-17T21:36:11.865Z,11.27
2022-10-17T21:38:39.564Z,12.05
2022-10-17T21:41:07.797Z,12.07
2022-10-17T21:43:35.668Z,11.65
2022-10-17T21:46:10.997Z,11.25
2022-10-17T21:48:38.701Z,11.95
2022-10-17T21:51:06.882Z,11.35
2022-10-17T21:53:34.479Z,11.88
2022-10-17T21:56:05.521Z,11.60
2022-10-17T21:58:33.171Z,13.13
2022-10-17T22:01:05.061Z,12.48
2022-10-17T22:03:36.329Z,11.52
2022-10-17T22:06:12.780Z,11.25
2022-10-17T22:08:46.062Z,11.43
2022-10-17T22:11:15.670Z,11.27
2022-10-17T22:13:42.985Z,11.15
2022-10-17T22:16:15.661Z,12.07
2022-10-17T22:18:43.523Z,11.20
2022-10-17T22:21:13.227Z,10.85
2022-10-17T22:23:41.615Z,10.98
2022-10-17T22:26:10.113Z,10.95
2022-10-17T22:28:37.488Z,10.65
2022-10-17T22:31:05.154Z,11.52
2022-10-17T22:33:33.143Z,11.13
2022-10-17T22:36:00.334Z,11.52
2022-10-17T22:38:27.564Z,11.63
2022-10-17T22:40:54.764Z,11.63
2022-10-17T22:43:22.087Z,11.50
2022-10-17T22:45:53.289Z,11.32
2022-10-17T22:48:20.575Z,11.18
2022-10-17T22:50:51.244Z,11.05
2022-10-17T22:53:23.571Z,11.02
2022-10-17T22:55:55.870Z,11.27
2022-10-17T22:58:23.621Z,11.98
2022-10-17T23:00:51.950Z,11.23
2022-10-17T23:03:19.884Z,10.60
2022-10-17T23:05:47.185Z,11.85
2022-10-17T23:08:14.869Z,11.32
2022-10-17T23:10:42.125Z,10.80
2022-10-17T23:13:09.312Z,11.25
2022-10-17T23:15:36.737Z,10.20
2022-10-17T23:18:04.284Z,10.75
2022-10-17T23:20:31.926Z,11.07
2022-10-17T23:22:59.589Z,10.73
2022-10-17T23:25:26.872Z,10.60
2022-10-17T23:27:54.331Z,11.02
2022-10-17T23:30:21.563Z,10.20
2022-10-17T23:32:48.808Z,10.95
2022-10-17T23:35:16.116Z,10.23
2022-10-17T23:37:46.309Z,10.23
2022-10-17T23:40:13.776Z,11.13
2022-10-17T23:42:41.006Z,10.65
2022-10-17T23:45:08.557Z,11.10
2022-10-17T23:47:35.830Z,10.90
2022-10-17T23:50:03.341Z,10.82
2022-10-17T23:52:30.569Z,10.18
2022-10-17T23:54:57.884Z,9.45
2022-10-17T23:57:25.087Z,10.45
2022-10-17T23:59:52.313Z,11.30
